createdAt,value
2017-08-26T00:00:08.066Z,19.53
2017-08-26T00:02:41.179Z,16.13
2017-08-26T00:05:08.722Z,16.20
2017-08-26T00:07:36.259Z,19.10
2017-08-26T00:10:03.847Z,20.63
2017-08-26T00:12:31.379Z,24.43
2017-08-26T00:14:58.927Z,18.87
2017-08-26T00:17:26.467Z,19.70
2017-08-26T00:19:54.023Z,19.27
2017-08-26T00:22:21.556Z,20.07
2017-08-26T00:24:49.131Z,18.37
2017-08-26T00:27:16.654Z,18.40
2017-08-26T00:29:44.220Z,18.20
2017-08-26T00:32:11.773Z,18.40
2017-08-26T00:34:39.314Z,17.87
2017-08-26T00:37:06.857Z,18.43
2017-08-26T00:39:34.515Z,19.37
2017-08-26T00:42:02.058Z,20.63
2017-08-26T00:44:29.591Z,21.13
2017-08-26T00:46:57.152Z,20.10
2017-08-26T00:49:24.695Z,20.90
2017-08-26T00:51:52.260Z,19.33
2017-08-26T00:54:19.804Z,19.47
2017-08-26T00:56:47.345Z,20.07
2017-08-26T00:59:14.883Z,20.80
2017-08-26T01:01:42.440Z,19.97
2017-08-26T01:04:09.981Z,18.70
2017-08-26T01:06:37.539Z,19.00
2017-08-26T01:09:05.071Z,20.47
2017-08-26T01:11:32.636Z,20.27
2017-08-26T01:14:00.177Z,20.53
2017-08-26T01:16:27.761Z,19.80
2017-08-26T01:18:55.292Z,20.63
2017-08-26T01:21:22.822Z,22.53
2017-08-26T01:23:50.367Z,20.87
2017-08-26T01:26:17.894Z,21.10
2017-08-26T01:28:45.461Z,22.17
2017-08-26T01:31:13.000Z,20.87
2017-08-26T01:33:40.553Z,22.63
2017-08-26T01:36:08.096Z,24.20
2017-08-26T01:38:35.656Z,22.83
2017-08-26T01:41:03.185Z,21.13
2017-08-26T01:43:30.745Z,21.10
2017-08-26T01:45:58.273Z,23.40
2017-08-26T01:48:25.824Z,20.67
2017-08-26T01:50:53.368Z,22.87
2017-08-26T01:53:20.915Z,19.50
2017-08-26T01:55:49.217Z,20.20
2017-08-26T01:58:16.782Z,18.40
2017-08-26T02:00:44.310Z,19.07
2017-08-26T02:03:11.871Z,16.50
2017-08-26T02:05:40.262Z,17.90
2017-08-26T02:08:07.824Z,19.57
2017-08-26T02:10:35.350Z,18.33
2017-08-26T02:13:02.895Z,17.00
2017-08-26T02:15:30.440Z,18.40
2017-08-26T02:17:58.016Z,17.77
2017-08-26T02:20:25.544Z,18.93
2017-08-26T02:22:53.070Z,17.67
2017-08-26T02:25:20.627Z,21.33
2017-08-26T02:27:48.172Z,18.50
2017-08-26T02:30:15.736Z,18.73
2017-08-26T02:32:43.276Z,19.90
2017-08-26T02:35:10.818Z,21.30
2017-08-26T02:37:38.358Z,19.07
2017-08-26T02:40:05.902Z,18.90
2017-08-26T02:42:33.444Z,18.00
2017-08-26T02:45:01.011Z,18.00
2017-08-26T02:47:28.542Z,20.67
2017-08-26T02:49:56.093Z,18.60
2017-08-26T02:52:23.618Z,17.17
2017-08-26T02:54:51.174Z,16.80
2017-08-26T02:57:18.697Z,19.63
2017-08-26T02:59:46.252Z,19.27
2017-08-26T03:02:13.796Z,18.30
2017-08-26T03:04:41.480Z,17.87
2017-08-26T03:07:09.792Z,16.20
2017-08-26T03:09:37.349Z,17.97
2017-08-26T03:12:04.897Z,17.47
2017-08-26T03:14:32.457Z,18.57
2017-08-26T03:16:59.986Z,17.30
2017-08-26T03:19:27.544Z,17.80
2017-08-26T03:21:55.091Z,16.00
2017-08-26T03:24:22.659Z,16.87
2017-08-26T03:26:50.199Z,16.93
2017-08-26T03:29:17.748Z,18.50
2017-08-26T03:31:46.041Z,18.17
2017-08-26T03:34:13.590Z,16.57
2017-08-26T03:36:41.123Z,16.37
2017-08-26T03:39:08.690Z,16.97
2017-08-26T03:41:36.213Z,15.87
2017-08-26T03:44:03.756Z,16.03
2017-08-26T03:46:31.311Z,15.30
2017-08-26T03:48:58.837Z,14.70
2017-08-26T03:51:27.156Z,16.10
2017-08-26T03:53:54.691Z,14.57
2017-08-26T03:56:22.246Z,15.50
2017-08-26T03:58:49.793Z,15.10
2017-08-26T04:01:17.344Z,15.47
2017-08-26T04:03:44.872Z,14.80
2017-08-26T04:06:13.200Z,14.93
2017-08-26T04:08:40.730Z,16.40
2017-08-26T04:11:08.282Z,14.57
2017-08-26T04:13:36.588Z,14.03
2017-08-26T04:16:04.139Z,13.53
2017-08-26T04:18:31.681Z,14.60
2017-08-26T04:20:59.999Z,13.43
2017-08-26T04:23:27.540Z,14.90
2017-08-26T04:25:55.087Z,14.80
2017-08-26T04:28:22.629Z,14.93
2017-08-26T04:30:50.187Z,15.97
2017-08-26T04:33:17.724Z,15.60
2017-08-26T04:35:45.308Z,14.40
2017-08-26T04:38:12.852Z,13.50
2017-08-26T04:40:40.383Z,12.37
2017-08-26T04:43:07.939Z,12.40
2017-08-26T04:45:35.476Z,12.63
2017-08-26T04:48:03.023Z,12.40
2017-08-26T04:50:30.561Z,11.93
2017-08-26T04:52:58.114Z,12.30
2017-08-26T04:55:25.652Z,11.73
2017-08-26T04:57:53.200Z,10.80
2017-08-26T05:00:20.744Z,11.87
2017-08-26T05:02:48.291Z,11.33
2017-08-26T05:05:15.828Z,10.40
2017-08-26T05:07:43.390Z,11.70
2017-08-26T05:10:10.923Z,11.17
2017-08-26T05:12:38.473Z,11.10
2017-08-26T05:15:06.013Z,10.27
2017-08-26T05:17:33.565Z,11.13
2017-08-26T05:20:01.100Z,10.40
2017-08-26T05:22:29.435Z,9.43
2017-08-26T05:24:56.953Z,8.63
2017-08-26T05:27:24.479Z,9.20
2017-08-26T05:29:52.038Z,9.43
2017-08-26T05:32:19.584Z,8.97
2017-08-26T05:34:47.129Z,9.30
2017-08-26T05:37:14.663Z,10.67
2017-08-26T05:39:42.206Z,9.37
2017-08-26T05:42:09.736Z,9.03
2017-08-26T05:44:37.278Z,9.13
2017-08-26T05:47:04.809Z,9.17
2017-08-26T05:49:32.351Z,10.23
2017-08-26T05:51:59.884Z,9.07
2017-08-26T05:54:27.429Z,8.73
2017-08-26T05:56:54.948Z,9.20
2017-08-26T05:59:22.486Z,8.60
2017-08-26T06:01:50.007Z,8.47
2017-08-26T06:04:17.562Z,9.00
2017-08-26T06:06:45.097Z,8.47
2017-08-26T06:09:12.650Z,8.30
2017-08-26T06:11:40.177Z,9.20
2017-08-26T06:14:07.734Z,8.93
2017-08-26T06:16:35.268Z,8.33
2017-08-26T06:19:02.797Z,8.17
2017-08-26T06:21:30.348Z,8.13
2017-08-26T06:23:57.871Z,7.90
2017-08-26T06:26:25.428Z,6.37
2017-08-26T06:28:52.956Z,6.63
2017-08-26T06:31:20.500Z,8.13
2017-08-26T06:33:48.026Z,8.30
2017-08-26T06:36:15.571Z,7.53
2017-08-26T06:38:43.100Z,5.30
2017-08-26T06:41:10.639Z,5.43
2017-08-26T06:43:38.163Z,5.80
2017-08-26T06:46:05.710Z,6.00
2017-08-26T06:48:33.244Z,5.93
2017-08-26T06:51:00.792Z,5.27
2017-08-26T06:53:28.313Z,6.00
2017-08-26T06:55:56.197Z,5.03
2017-08-26T06:58:23.736Z,5.50
2017-08-26T07:00:51.272Z,5.90
2017-08-26T07:03:19.582Z,4.93
2017-08-26T07:05:47.119Z,4.47
2017-08-26T07:08:14.661Z,4.40
2017-08-26T07:10:42.197Z,5.77
2017-08-26T07:13:09.751Z,4.47
2017-08-26T07:15:37.279Z,4.63
2017-08-26T07:18:04.836Z,4.60
2017-08-26T07:20:32.366Z,4.97
2017-08-26T07:22:59.923Z,5.40
2017-08-26T07:25:27.447Z,5.20
2017-08-26T07:27:54.994Z,4.77
2017-08-26T07:30:22.532Z,5.57
2017-08-26T07:32:50.089Z,5.23
2017-08-26T07:35:17.632Z,4.03
2017-08-26T07:37:45.188Z,5.67
2017-08-26T07:40:12.710Z,7.90
2017-08-26T07:42:40.262Z,5.33
2017-08-26T07:45:07.796Z,5.43
2017-08-26T07:47:35.334Z,5.60
2017-08-26T07:50:03.650Z,5.00
2017-08-26T07:52:31.188Z,5.27
2017-08-26T07:54:58.724Z,9.83
2017-08-26T07:57:26.274Z,4.53
2017-08-26T07:59:53.818Z,5.63
2017-08-26T08:02:21.365Z,4.27
2017-08-26T08:04:48.899Z,4.90
2017-08-26T08:07:16.435Z,6.73
2017-08-26T08:09:43.982Z,5.30
2017-08-26T08:12:11.507Z,5.07
2017-08-26T08:14:39.056Z,6.10
2017-08-26T08:17:06.598Z,6.80
2017-08-26T08:19:34.291Z,6.80
2017-08-26T08:22:01.815Z,5.40
2017-08-26T08:24:29.359Z,5.10
2017-08-26T08:26:56.874Z,4.07
2017-08-26T08:29:24.431Z,7.00
2017-08-26T08:31:51.969Z,4.50
2017-08-26T08:34:19.530Z,4.30
2017-08-26T08:36:47.059Z,4.73
2017-08-26T08:39:14.612Z,6.80
2017-08-26T08:41:42.144Z,6.60
2017-08-26T08:44:10.459Z,4.93
2017-08-26T08:46:37.992Z,4.47
2017-08-26T08:49:05.536Z,4.20
2017-08-26T08:51:33.082Z,4.10
2017-08-26T08:54:00.628Z,4.83
2017-08-26T08:56:28.180Z,4.43
2017-08-26T08:58:55.776Z,3.50
2017-08-26T09:01:23.325Z,4.40
2017-08-26T09:03:50.841Z,4.37
2017-08-26T09:06:19.169Z,5.30
2017-08-26T09:08:46.691Z,6.00
2017-08-26T09:11:14.240Z,3.77
2017-08-26T09:13:41.771Z,5.30
2017-08-26T09:16:09.315Z,4.40
2017-08-26T09:18:36.950Z,3.77
2017-08-26T09:21:04.499Z,3.67
2017-08-26T09:23:32.035Z,3.30
2017-08-26T09:25:59.581Z,3.90
2017-08-26T09:28:27.114Z,4.70
2017-08-26T09:30:54.716Z,4.27
2017-08-26T09:33:22.248Z,4.43
2017-08-26T09:35:49.804Z,3.70
2017-08-26T09:38:17.338Z,4.47
2017-08-26T09:40:44.893Z,3.80
2017-08-26T09:43:12.433Z,4.53
2017-08-26T09:45:40.006Z,5.93
2017-08-26T09:48:07.540Z,5.83
2017-08-26T09:50:35.072Z,9.00
2017-08-26T09:53:02.623Z,5.47
2017-08-26T09:55:30.151Z,4.23
2017-08-26T09:57:57.698Z,4.00
2017-08-26T10:00:25.228Z,4.70
2017-08-26T10:02:52.790Z,7.10
2017-08-26T10:05:21.082Z,5.57
2017-08-26T10:07:49.405Z,6.07
2017-08-26T10:10:16.935Z,4.67
2017-08-26T10:12:44.488Z,4.83
2017-08-26T10:15:12.019Z,4.57
2017-08-26T10:17:39.581Z,4.40
2017-08-26T10:20:07.102Z,5.57
2017-08-26T10:22:34.659Z,3.57
2017-08-26T10:25:02.187Z,4.37
2017-08-26T10:27:29.738Z,4.60
2017-08-26T10:29:57.278Z,4.50
2017-08-26T10:32:24.835Z,4.67
2017-08-26T10:34:52.368Z,4.73
2017-08-26T10:37:19.924Z,5.13
2017-08-26T10:39:47.456Z,5.43
2017-08-26T10:42:15.012Z,5.17
2017-08-26T10:44:42.544Z,5.60
2017-08-26T10:47:10.095Z,4.70
2017-08-26T10:49:37.628Z,5.00
2017-08-26T10:52:05.192Z,6.90
2017-08-26T10:54:32.730Z,4.97
2017-08-26T10:57:00.272Z,4.50
2017-08-26T10:59:27.813Z,4.70
2017-08-26T11:01:55.378Z,4.50
2017-08-26T11:04:23.683Z,5.28
2017-08-26T11:06:51.205Z,4.37
2017-08-26T11:09:18.752Z,5.35
2017-08-26T11:11:46.279Z,5.80
2017-08-26T11:14:13.925Z,4.90
2017-08-26T11:16:41.447Z,5.90
2017-08-26T11:19:08.995Z,5.35
2017-08-26T11:21:36.537Z,4.72
2017-08-26T11:24:04.082Z,4.65
2017-08-26T11:26:31.607Z,5.15
2017-08-26T11:28:59.151Z,5.72
2017-08-26T11:31:26.673Z,5.95
2017-08-26T11:33:54.228Z,7.25
2017-08-26T11:36:23.112Z,6.00
2017-08-26T11:38:52.001Z,6.87
2017-08-26T11:41:20.873Z,8.07
2017-08-26T11:43:49.761Z,8.90
2017-08-26T11:46:18.624Z,7.93
2017-08-26T11:48:47.529Z,7.33
2017-08-26T11:51:16.401Z,8.20
2017-08-26T11:53:45.305Z,7.85
2017-08-26T11:56:14.174Z,8.60
2017-08-26T11:58:43.068Z,7.20
2017-08-26T12:01:11.933Z,7.22
2017-08-26T12:03:40.832Z,6.75
2017-08-26T12:06:09.704Z,7.40
2017-08-26T12:08:38.580Z,7.15
2017-08-26T12:11:07.478Z,6.80
2017-08-26T12:13:36.362Z,6.65
2017-08-26T12:16:05.258Z,7.20
2017-08-26T12:18:34.154Z,9.20
2017-08-26T12:21:03.035Z,7.35
2017-08-26T12:23:31.905Z,7.25
2017-08-26T12:26:00.790Z,7.60
2017-08-26T12:28:29.667Z,7.82
2017-08-26T12:30:58.550Z,7.82
2017-08-26T12:33:27.431Z,7.75
2017-08-26T12:35:56.323Z,7.35
2017-08-26T12:38:25.198Z,7.75
2017-08-26T12:40:54.091Z,7.95
2017-08-26T12:43:22.973Z,8.05
2017-08-26T12:45:51.867Z,7.90
2017-08-26T12:48:20.736Z,7.87
2017-08-26T12:50:49.638Z,8.80
2017-08-26T12:53:18.526Z,7.20
2017-08-26T12:55:47.428Z,8.60
2017-08-26T12:58:16.297Z,8.07
2017-08-26T13:00:45.187Z,9.47
2017-08-26T13:03:14.060Z,7.80
2017-08-26T13:05:42.970Z,8.50
2017-08-26T13:08:11.849Z,7.68
2017-08-26T13:10:40.777Z,8.07
2017-08-26T13:13:09.687Z,8.60
2017-08-26T13:15:38.595Z,9.07
2017-08-26T13:18:07.481Z,8.32
2017-08-26T13:20:36.364Z,8.25
2017-08-26T13:23:05.257Z,9.35
2017-08-26T13:25:34.122Z,8.93
2017-08-26T13:28:03.018Z,8.43
2017-08-26T13:30:31.885Z,8.32
2017-08-26T13:33:00.807Z,9.75
2017-08-26T13:35:29.682Z,9.20
2017-08-26T13:37:58.609Z,8.40
2017-08-26T13:40:27.487Z,10.77
2017-08-26T13:42:56.388Z,8.73
2017-08-26T13:45:25.267Z,9.30
2017-08-26T13:47:54.163Z,10.30
2017-08-26T13:50:23.045Z,9.23
2017-08-26T13:52:51.935Z,9.50
2017-08-26T13:55:20.806Z,9.67
2017-08-26T13:57:49.727Z,10.50
2017-08-26T14:00:18.606Z,9.57
2017-08-26T14:02:47.512Z,9.63
2017-08-26T14:05:16.393Z,12.57
2017-08-26T14:07:45.281Z,10.55
2017-08-26T14:10:14.159Z,9.43
2017-08-26T14:12:43.075Z,9.60
2017-08-26T14:15:11.955Z,9.37
2017-08-26T14:17:40.851Z,9.70
2017-08-26T14:20:09.752Z,11.60
2017-08-26T14:22:38.635Z,10.33
2017-08-26T14:25:07.522Z,10.73
2017-08-26T14:27:36.404Z,9.33
2017-08-26T14:30:05.312Z,10.40
2017-08-26T14:32:34.487Z,9.40
2017-08-26T14:35:03.387Z,9.77
2017-08-26T14:37:32.269Z,9.67
2017-08-26T14:40:01.175Z,9.53
2017-08-26T14:42:30.055Z,9.63
2017-08-26T14:44:58.964Z,9.53
2017-08-26T14:47:27.854Z,11.37
2017-08-26T14:49:56.766Z,10.47
2017-08-26T14:52:25.642Z,10.80
2017-08-26T14:54:54.572Z,11.33
2017-08-26T14:57:23.455Z,11.90
2017-08-26T14:59:52.366Z,12.40
2017-08-26T15:02:21.261Z,12.33
2017-08-26T15:04:50.203Z,12.03
2017-08-26T15:07:19.096Z,13.23
2017-08-26T15:09:48.000Z,12.85
2017-08-26T15:12:16.907Z,12.73
2017-08-26T15:14:45.868Z,12.40
2017-08-26T15:17:14.783Z,13.10
2017-08-26T15:19:43.657Z,15.17
2017-08-26T15:22:12.553Z,14.60
2017-08-26T15:24:41.443Z,13.40
2017-08-26T15:27:10.350Z,13.60
2017-08-26T15:29:39.220Z,15.17
2017-08-26T15:32:08.127Z,14.73
2017-08-26T15:34:37.010Z,13.33
2017-08-26T15:37:05.906Z,13.63
2017-08-26T15:39:34.779Z,14.67
2017-08-26T15:42:03.678Z,14.70
2017-08-26T15:44:32.553Z,15.60
2017-08-26T15:47:01.448Z,15.63
2017-08-26T15:49:30.326Z,14.40
2017-08-26T15:51:59.227Z,17.33
2017-08-26T15:54:28.097Z,16.10
2017-08-26T15:56:57.003Z,16.07
2017-08-26T15:59:25.890Z,15.60
2017-08-26T16:01:54.783Z,16.20
2017-08-26T16:04:23.668Z,15.07
2017-08-26T16:06:52.568Z,14.13
2017-08-26T16:09:21.442Z,16.30
2017-08-26T16:11:50.338Z,16.57
2017-08-26T16:14:19.210Z,17.87
2017-08-26T16:16:48.120Z,16.60
2017-08-26T16:19:16.994Z,17.77
2017-08-26T16:21:45.883Z,16.83
2017-08-26T16:24:14.761Z,17.30
2017-08-26T16:26:43.663Z,15.00
2017-08-26T16:29:12.550Z,16.60
2017-08-26T16:31:41.430Z,15.33
2017-08-26T16:34:10.318Z,16.87
2017-08-26T16:36:39.206Z,16.57
2017-08-26T16:39:08.111Z,17.60
2017-08-26T16:41:37.000Z,16.87
2017-08-26T16:44:05.902Z,16.07
2017-08-26T16:46:34.786Z,17.23
2017-08-26T16:49:03.682Z,16.73
2017-08-26T16:51:32.562Z,17.13
2017-08-26T16:54:01.475Z,17.77
2017-08-26T16:56:30.346Z,16.13
2017-08-26T16:58:59.247Z,17.87
2017-08-26T17:01:28.131Z,19.70
2017-08-26T17:03:57.036Z,19.10
2017-08-26T17:06:25.927Z,19.80
2017-08-26T17:08:54.839Z,18.40
2017-08-26T17:11:23.723Z,19.70
2017-08-26T17:13:52.624Z,19.10
2017-08-26T17:16:21.521Z,18.57
2017-08-26T17:18:50.428Z,19.17
2017-08-26T17:21:19.326Z,19.47
2017-08-26T17:23:48.227Z,17.63
2017-08-26T17:26:17.117Z,20.37
2017-08-26T17:28:46.032Z,18.10
2017-08-26T17:31:14.924Z,18.93
2017-08-26T17:33:43.823Z,18.07
2017-08-26T17:36:12.706Z,20.00
2017-08-26T17:38:41.602Z,17.00
2017-08-26T17:41:10.494Z,20.40
2017-08-26T17:43:39.367Z,18.47
2017-08-26T17:46:08.254Z,17.33
2017-08-26T17:48:37.135Z,18.97
2017-08-26T17:51:06.052Z,17.67
2017-08-26T17:53:34.926Z,19.13
2017-08-26T17:56:03.817Z,19.37
2017-08-26T17:58:32.694Z,20.67
2017-08-26T18:01:01.620Z,19.80
2017-08-26T18:03:30.492Z,22.10
2017-08-26T18:05:59.385Z,20.83
2017-08-26T18:08:28.263Z,21.13
2017-08-26T18:10:57.162Z,21.63
2017-08-26T18:13:26.046Z,22.83
2017-08-26T18:15:54.952Z,21.53
2017-08-26T18:18:23.821Z,20.17
2017-08-26T18:20:52.723Z,22.00
2017-08-26T18:23:21.607Z,19.67
2017-08-26T18:25:50.520Z,21.10
2017-08-26T18:28:19.401Z,17.73
2017-08-26T18:30:48.289Z,17.90
2017-08-26T18:33:17.171Z,17.93
2017-08-26T18:35:46.066Z,16.80
2017-08-26T18:38:14.959Z,19.87
2017-08-26T18:40:43.850Z,15.27
2017-08-26T18:43:12.736Z,16.10
2017-08-26T18:45:41.640Z,17.50
2017-08-26T18:48:10.519Z,18.73
2017-08-26T18:50:39.419Z,17.37
2017-08-26T18:53:08.291Z,15.83
2017-08-26T18:55:37.210Z,14.47
2017-08-26T18:58:06.085Z,15.73
2017-08-26T19:00:34.993Z,14.40
2017-08-26T19:03:03.870Z,14.93
2017-08-26T19:05:32.772Z,16.20
2017-08-26T19:08:01.656Z,15.60
2017-08-26T19:10:30.542Z,15.63
2017-08-26T19:12:59.439Z,14.63
2017-08-26T19:15:28.315Z,17.10
2017-08-26T19:17:57.201Z,15.87
2017-08-26T19:20:26.103Z,15.80
2017-08-26T19:22:55.007Z,17.27
2017-08-26T19:25:23.887Z,16.07
2017-08-26T19:27:52.791Z,17.07
2017-08-26T19:30:21.667Z,16.87
2017-08-26T19:32:50.576Z,17.47
2017-08-26T19:35:19.483Z,18.60
2017-08-26T19:37:48.391Z,17.40
2017-08-26T19:40:17.272Z,19.33
2017-08-26T19:42:46.160Z,18.70
2017-08-26T19:45:15.052Z,17.50
2017-08-26T19:47:43.955Z,18.30
2017-08-26T19:50:12.833Z,19.57
2017-08-26T19:52:41.742Z,20.80
2017-08-26T19:55:10.624Z,17.60
2017-08-26T19:57:39.532Z,18.47
2017-08-26T20:00:08.420Z,18.03
2017-08-26T20:02:37.322Z,18.40
2017-08-26T20:05:06.203Z,17.93
2017-08-26T20:07:35.122Z,18.03
2017-08-26T20:10:04.007Z,19.47
2017-08-26T20:12:32.876Z,19.20
2017-08-26T20:15:01.771Z,19.63
2017-08-26T20:17:30.653Z,19.53
2017-08-26T20:19:59.543Z,18.63
2017-08-26T20:22:28.436Z,18.90
2017-08-26T20:24:57.364Z,19.57
2017-08-26T20:27:26.247Z,19.50
2017-08-26T20:29:55.153Z,20.23
2017-08-26T20:32:24.041Z,18.30
2017-08-26T20:34:52.943Z,19.50
2017-08-26T20:37:21.822Z,19.23
2017-08-26T20:39:50.715Z,20.27
2017-08-26T20:42:19.602Z,20.93
2017-08-26T20:44:48.510Z,19.23
2017-08-26T20:47:17.423Z,20.87
2017-08-26T20:49:46.332Z,20.40
2017-08-26T20:52:15.210Z,19.70
2017-08-26T20:54:44.112Z,19.57
2017-08-26T20:57:12.985Z,21.27
2017-08-26T20:59:41.896Z,19.60
2017-08-26T21:02:10.781Z,19.70
2017-08-26T21:04:39.708Z,19.87
2017-08-26T21:07:08.594Z,21.23
2017-08-26T21:09:37.467Z,21.97
2017-08-26T21:12:06.374Z,24.20
2017-08-26T21:14:35.250Z,26.10
2017-08-26T21:17:04.157Z,31.77
2017-08-26T21:19:33.040Z,29.83
2017-08-26T21:22:01.936Z,32.53
2017-08-26T21:24:30.819Z,28.90
2017-08-26T21:26:59.724Z,28.97
2017-08-26T21:29:28.603Z,30.50
2017-08-26T21:31:57.504Z,27.37
2017-08-26T21:34:26.382Z,24.37
2017-08-26T21:36:55.291Z,23.87
2017-08-26T21:39:24.175Z,25.57
2017-08-26T21:41:53.078Z,25.23
2017-08-26T21:44:21.968Z,23.37
2017-08-26T21:46:50.887Z,20.77
2017-08-26T21:49:19.759Z,24.00
2017-08-26T21:51:48.644Z,25.07
2017-08-26T21:54:17.534Z,21.70
2017-08-26T21:56:47.464Z,23.70
2017-08-26T21:59:16.379Z,21.90
2017-08-26T22:01:45.271Z,23.23
2017-08-26T22:04:14.186Z,23.20
2017-08-26T22:06:43.064Z,22.50
2017-08-26T22:09:11.970Z,24.13
2017-08-26T22:11:40.852Z,22.93
2017-08-26T22:14:09.754Z,24.70
2017-08-26T22:16:38.640Z,23.37
2017-08-26T22:19:07.538Z,24.17
2017-08-26T22:21:36.432Z,26.53
2017-08-26T22:24:05.324Z,26.57
2017-08-26T22:26:34.257Z,26.17
2017-08-26T22:29:03.154Z,28.10
2017-08-26T22:31:32.035Z,26.27
2017-08-26T22:34:00.929Z,25.73
2017-08-26T22:36:29.807Z,25.47
2017-08-26T22:38:58.708Z,26.03
2017-08-26T22:41:27.585Z,27.27
2017-08-26T22:43:56.504Z,27.90
2017-08-26T22:46:25.394Z,28.10
2017-08-26T22:48:54.266Z,25.67
2017-08-26T22:51:23.163Z,26.87
2017-08-26T22:53:52.048Z,27.57
2017-08-26T22:56:20.942Z,27.27
2017-08-26T22:58:49.838Z,28.17
2017-08-26T23:01:18.734Z,28.73
2017-08-26T23:03:48.425Z,26.83
2017-08-26T23:06:17.332Z,27.70
2017-08-26T23:08:46.228Z,28.30
2017-08-26T23:11:15.131Z,29.80
2017-08-26T23:13:44.012Z,28.00
2017-08-26T23:16:12.911Z,29.23
2017-08-26T23:18:41.796Z,28.60
2017-08-26T23:21:10.694Z,29.07
2017-08-26T23:23:39.567Z,27.53
2017-08-26T23:26:08.459Z,27.60
2017-08-26T23:28:37.330Z,27.17
2017-08-26T23:31:06.237Z,28.70
2017-08-26T23:33:35.110Z,27.57
2017-08-26T23:36:04.020Z,29.47
2017-08-26T23:38:32.907Z,27.53
2017-08-26T23:41:01.802Z,27.40
2017-08-26T23:43:30.673Z,30.63
2017-08-26T23:45:59.580Z,30.47
2017-08-26T23:48:28.460Z,29.00
2017-08-26T23:50:57.368Z,28.70
2017-08-26T23:53:26.255Z,28.97
2017-08-26T23:55:55.170Z,28.33
2017-08-26T23:58:24.057Z,29.50
